createdAt,value
2022-09-21T00:01:29.832Z,100131.00
2022-09-21T00:04:00.058Z,100127.75
2022-09-21T00:06:29.249Z,100129.78
2022-09-21T00:08:57.034Z,100131.50
2022-09-21T00:11:27.495Z,100128.19
2022-09-21T00:13:57.721Z,100133.34
2022-09-21T00:16:25.391Z,100133.59
2022-09-21T00:18:53.023Z,100123.94
2022-09-21T00:24:07.615Z,100123.34
2022-09-21T00:26:35.221Z,100112.91
2022-09-21T00:29:03.993Z,100121.25
2022-09-21T00:31:31.996Z,100119.94
2022-09-21T00:34:00.270Z,100118.31
2022-09-21T00:36:28.404Z,100126.78
2022-09-21T00:38:58.130Z,100129.25
2022-09-21T00:41:26.919Z,100138.16
2022-09-21T00:44:32.917Z,100127.31
2022-09-21T00:47:09.449Z,100123.62
2022-09-21T00:49:38.401Z,100125.75
2022-09-21T00:52:06.841Z,100132.56
2022-09-21T00:54:43.612Z,100135.94
2022-09-21T00:57:11.702Z,100132.72
2022-09-21T00:59:39.767Z,100141.50
2022-09-21T01:02:07.231Z,100137.09
2022-09-21T01:04:36.189Z,100147.00
2022-09-21T01:07:06.697Z,100140.66
2022-09-21T01:09:34.528Z,100144.75
2022-09-21T01:12:18.476Z,100143.94
2022-09-21T01:14:50.620Z,100139.38
2022-09-21T01:17:35.107Z,100143.28
2022-09-21T01:20:08.627Z,100141.28
2022-09-21T01:23:07.445Z,100142.91
2022-09-21T01:25:34.645Z,100148.09
2022-09-21T01:28:52.931Z,100142.03
2022-09-21T01:31:27.020Z,100138.72
2022-09-21T01:33:59.166Z,100143.78
2022-09-21T01:36:29.434Z,100142.78
2022-09-21T01:39:03.420Z,100146.88
2022-09-21T01:41:32.436Z,100143.41
2022-09-21T01:44:08.447Z,100145.16
2022-09-21T01:46:37.334Z,100145.19
2022-09-21T01:49:10.690Z,100149.66
2022-09-21T01:51:43.897Z,100144.75
2022-09-21T01:54:15.370Z,100159.06
2022-09-21T01:56:51.956Z,100152.97
2022-09-21T01:59:21.852Z,100158.03
2022-09-21T02:01:53.767Z,100149.37
2022-09-21T02:04:21.616Z,100146.56
2022-09-21T02:06:49.941Z,100152.13
2022-09-21T02:09:18.078Z,100155.22
2022-09-21T02:11:45.971Z,100149.53
2022-09-21T02:14:18.280Z,100145.03
2022-09-21T02:16:45.846Z,100157.72
2022-09-21T02:19:31.874Z,100158.87
2022-09-21T02:22:07.814Z,100162.78
2022-09-21T02:24:41.471Z,100165.13
2022-09-21T02:27:26.128Z,100162.09
2022-09-21T02:30:17.106Z,100168.72
2022-09-21T02:33:14.017Z,100165.75
2022-09-21T02:35:56.097Z,100166.06
2022-09-21T02:38:42.832Z,100160.72
2022-09-21T02:41:20.346Z,100163.34
2022-09-21T02:43:53.142Z,100164.41
2022-09-21T02:46:36.662Z,100163.75
2022-09-21T02:49:11.159Z,100170.38
2022-09-21T02:51:48.093Z,100168.97
2022-09-21T02:54:18.679Z,100171.63
2022-09-21T02:56:49.033Z,100164.94
2022-09-21T02:59:16.782Z,100170.06
2022-09-21T03:01:44.469Z,100167.97
2022-09-21T03:04:11.917Z,100173.38
2022-09-21T03:06:39.519Z,100172.31
2022-09-21T03:09:07.082Z,100178.03
2022-09-21T03:11:36.109Z,100187.97
2022-09-21T03:14:08.448Z,100185.53
2022-09-21T03:16:36.512Z,100187.25
2022-09-21T03:19:05.625Z,100190.19
2022-09-21T03:21:33.065Z,100191.31
2022-09-21T03:24:00.436Z,100190.03
2022-09-21T03:26:28.047Z,100194.22
2022-09-21T03:28:55.565Z,100200.00
2022-09-21T03:31:23.019Z,100195.69
2022-09-21T03:33:50.649Z,100192.87
2022-09-21T03:36:18.236Z,100193.94
2022-09-21T03:38:45.653Z,100189.72
2022-09-21T03:41:15.225Z,100195.16
2022-09-21T03:43:42.579Z,100189.22
2022-09-21T03:46:10.164Z,100191.12
2022-09-21T03:48:37.901Z,100190.28
2022-09-21T03:51:05.421Z,100194.53
2022-09-21T03:53:32.823Z,100195.22
2022-09-21T03:56:00.510Z,100202.28
2022-09-21T03:58:27.864Z,100210.16
2022-09-21T04:01:01.240Z,100210.06
2022-09-21T04:03:29.825Z,100213.75
2022-09-21T04:05:57.236Z,100213.75
2022-09-21T04:08:24.557Z,100213.22
2022-09-21T04:10:52.167Z,100211.81
2022-09-21T04:13:19.503Z,100209.91
2022-09-21T04:15:46.877Z,100219.81
2022-09-21T04:18:15.028Z,100216.47
2022-09-21T04:20:42.347Z,100221.84
2022-09-21T04:23:09.992Z,100217.69
2022-09-21T04:25:37.597Z,100228.25
2022-09-21T04:28:04.957Z,100220.19
2022-09-21T04:30:37.588Z,100224.22
2022-09-21T04:33:06.063Z,100227.81
2022-09-21T04:35:33.412Z,100229.38
2022-09-21T04:38:00.753Z,100225.12
2022-09-21T04:40:28.742Z,100225.09
2022-09-21T04:42:56.222Z,100230.84
2022-09-21T04:45:23.587Z,100229.28
2022-09-21T04:47:51.182Z,100236.63
2022-09-21T04:50:19.758Z,100236.75
2022-09-21T04:52:47.727Z,100240.19
2022-09-21T04:55:15.457Z,100235.41
2022-09-21T04:57:42.881Z,100242.50
2022-09-21T05:00:10.871Z,100245.09
2022-09-21T05:02:38.453Z,100244.31
2022-09-21T05:05:06.090Z,100251.28
2022-09-21T05:07:33.431Z,100251.72
2022-09-21T05:10:04.092Z,100251.41
2022-09-21T05:12:33.065Z,100251.16
2022-09-21T05:15:01.077Z,100243.50
2022-09-21T05:17:28.667Z,100251.94
2022-09-21T05:19:56.027Z,100252.62
2022-09-21T05:22:23.810Z,100251.47
2022-09-21T05:24:51.157Z,100248.31
2022-09-21T05:27:18.497Z,100252.28
2022-09-21T05:29:46.295Z,100256.78
2022-09-21T05:32:27.347Z,100253.03
2022-09-21T05:35:16.635Z,100263.63
2022-09-21T05:38:04.596Z,100268.47
2022-09-21T05:40:32.620Z,100266.19
2022-09-21T05:43:00.322Z,100261.94
2022-09-21T05:45:29.026Z,100274.50
2022-09-21T05:48:06.037Z,100271.69
2022-09-21T05:50:48.763Z,100272.28
2022-09-21T05:53:53.507Z,100277.00
2022-09-21T05:56:42.348Z,100274.84
2022-09-21T05:59:12.881Z,100271.22
2022-09-21T06:02:01.610Z,100278.53
2022-09-21T06:04:29.608Z,100286.16
2022-09-21T06:06:56.957Z,100282.38
2022-09-21T06:09:25.857Z,100289.97
2022-09-21T06:11:53.857Z,100283.72
2022-09-21T06:14:25.524Z,100285.16
2022-09-21T06:16:53.199Z,100287.38
2022-09-21T06:19:20.657Z,100287.31
2022-09-21T06:21:48.147Z,100286.41
2022-09-21T06:24:15.751Z,100288.37
2022-09-21T06:26:43.208Z,100295.78
2022-09-21T06:29:10.568Z,100287.16
2022-09-21T06:31:38.149Z,100288.69
2022-09-21T06:34:05.606Z,100292.34
2022-09-21T06:36:33.037Z,100292.16
2022-09-21T06:39:00.662Z,100292.09
2022-09-21T06:41:28.154Z,100296.59
2022-09-21T06:43:57.125Z,100285.56
2022-09-21T06:46:24.920Z,100290.84
2022-09-21T06:48:52.279Z,100289.59
2022-09-21T06:51:21.586Z,100289.56
2022-09-21T06:53:55.664Z,100297.34
2022-09-21T06:56:23.444Z,100300.41
2022-09-21T06:58:52.492Z,100297.50
2022-09-21T07:01:20.105Z,100301.22
2022-09-21T07:03:51.781Z,100304.94
2022-09-21T07:06:20.433Z,100306.06
2022-09-21T07:11:41.876Z,100303.91
2022-09-21T07:14:09.201Z,100308.66
2022-09-21T07:16:37.490Z,100310.25
2022-09-21T07:19:11.815Z,100307.97
2022-09-21T07:21:39.850Z,100317.16
2022-09-21T07:24:11.672Z,100315.53
2022-09-21T07:26:40.000Z,100315.63
2022-09-21T07:29:07.489Z,100312.72
2022-09-21T07:31:35.282Z,100308.69
2022-09-21T07:34:03.077Z,100321.19
2022-09-21T07:36:30.876Z,100316.22
2022-09-21T07:38:58.480Z,100312.75
2022-09-21T07:41:26.153Z,100327.25
2022-09-21T07:43:53.648Z,100319.94
2022-09-21T07:46:21.106Z,100326.53
2022-09-21T07:48:48.708Z,100327.59
2022-09-21T07:51:16.766Z,100325.34
2022-09-21T07:53:46.953Z,100322.28
2022-09-21T07:56:17.830Z,100329.44
2022-09-21T07:59:03.822Z,100322.97
2022-09-21T08:01:32.607Z,100324.06
2022-09-21T08:04:00.815Z,100324.87
2022-09-21T08:06:30.496Z,100319.09
2022-09-21T08:08:58.325Z,100331.41
2022-09-21T08:11:27.754Z,100327.44
2022-09-21T08:13:57.634Z,100322.37
2022-09-21T08:16:27.626Z,100330.62
2022-09-21T08:18:55.181Z,100329.09
2022-09-21T08:21:22.934Z,100325.75
2022-09-21T08:23:50.535Z,100324.16
2022-09-21T08:26:19.812Z,100325.53
2022-09-21T08:28:49.240Z,100328.25
2022-09-21T08:31:19.755Z,100327.12
2022-09-21T08:33:48.136Z,100327.97
2022-09-21T08:36:15.720Z,100327.47
2022-09-21T08:38:43.391Z,100322.53
2022-09-21T08:41:20.200Z,100329.03
2022-09-21T08:44:07.659Z,100326.34
2022-09-21T08:46:36.998Z,100340.31
2022-09-21T08:49:17.836Z,100328.25
2022-09-21T08:52:16.906Z,100339.50
2022-09-21T08:54:52.769Z,100337.03
2022-09-21T08:57:20.509Z,100326.62
2022-09-21T08:59:49.504Z,100341.16
2022-09-21T09:02:54.614Z,100341.41
2022-09-21T09:05:33.757Z,100341.63
2022-09-21T09:08:04.319Z,100342.78
2022-09-21T09:10:55.927Z,100337.56
2022-09-21T09:13:32.400Z,100347.69
2022-09-21T09:16:15.300Z,100338.63
2022-09-21T09:18:46.469Z,100338.66
2022-09-21T09:21:30.777Z,100340.88
2022-09-21T09:24:06.220Z,100340.59
2022-09-21T09:26:43.089Z,100334.00
2022-09-21T09:29:29.569Z,100329.38
2022-09-21T09:31:59.420Z,100330.00
2022-09-21T09:34:32.542Z,100328.81
2022-09-21T09:37:09.335Z,100333.19
2022-09-21T09:39:37.098Z,100323.84
2022-09-21T09:42:23.775Z,100323.69
2022-09-21T09:45:25.493Z,100334.28
2022-09-21T09:48:12.556Z,100332.63
2022-09-21T09:50:40.751Z,100327.16
2022-09-21T09:53:13.498Z,100326.88
2022-09-21T09:55:43.880Z,100327.72
2022-09-21T09:58:17.729Z,100325.78
2022-09-21T10:00:46.372Z,100326.62
2022-09-21T10:03:19.656Z,100319.19
2022-09-21T10:05:47.611Z,100320.56
2022-09-21T10:08:34.453Z,100327.41
2022-09-21T10:11:02.943Z,100320.28
2022-09-21T10:13:32.391Z,100324.28
2022-09-21T10:16:19.762Z,100320.81
2022-09-21T10:18:49.923Z,100320.62
2022-09-21T10:21:52.088Z,100311.06
2022-09-21T10:24:25.870Z,100310.94
2022-09-21T10:27:11.750Z,100314.16
2022-09-21T10:29:47.857Z,100308.78
2022-09-21T10:32:16.395Z,100312.94
2022-09-21T10:35:12.935Z,100299.50
2022-09-21T10:37:46.399Z,100301.13
2022-09-21T10:40:20.270Z,100300.12
2022-09-21T10:42:59.079Z,100296.75
2022-09-21T10:45:31.830Z,100302.66
2022-09-21T10:48:05.333Z,100295.81
2022-09-21T10:50:39.636Z,100301.47
2022-09-21T10:53:09.892Z,100300.25
2022-09-21T10:55:44.076Z,100288.47
2022-09-21T10:58:20.370Z,100294.63
2022-09-21T11:00:51.804Z,100295.38
2022-09-21T11:03:57.753Z,100294.34
2022-09-21T11:06:37.716Z,100287.41
2022-09-21T11:09:23.765Z,100292.34
2022-09-21T11:11:58.207Z,100288.16
2022-09-21T11:14:38.650Z,100281.44
2022-09-21T11:17:20.132Z,100288.16
2022-09-21T11:19:52.704Z,100287.81
2022-09-21T11:22:32.680Z,100278.72
2022-09-21T11:25:18.673Z,100284.94
2022-09-21T11:27:49.385Z,100274.66
2022-09-21T11:30:18.583Z,100275.53
2022-09-21T11:33:02.327Z,100274.81
2022-09-21T11:35:50.660Z,100266.31
2022-09-21T11:38:46.331Z,100275.44
2022-09-21T11:41:19.578Z,100265.94
2022-09-21T11:44:03.645Z,100277.19
2022-09-21T11:46:46.792Z,100275.31
2022-09-21T11:49:39.243Z,100272.94
2022-09-21T11:52:39.081Z,100260.53
2022-09-21T11:55:06.697Z,100260.84
2022-09-21T11:57:45.544Z,100249.06
2022-09-21T12:00:18.800Z,100253.28
2022-09-21T12:03:16.092Z,100255.03
2022-09-21T12:05:43.330Z,100250.28
2022-09-21T12:08:37.141Z,100238.72
2022-09-21T12:11:49.169Z,100237.31
2022-09-21T12:14:28.607Z,100247.28
2022-09-21T12:17:05.897Z,100252.62
2022-09-21T12:20:02.290Z,100248.31
2022-09-21T12:22:36.186Z,100241.25
2022-09-21T12:25:24.078Z,100237.34
2022-09-21T12:28:01.266Z,100226.09
2022-09-21T12:30:31.366Z,100234.88
2022-09-21T12:33:12.841Z,100226.72
2022-09-21T12:35:46.758Z,100228.72
2022-09-21T12:38:21.281Z,100224.81
2022-09-21T12:41:11.398Z,100227.78
2022-09-21T12:43:44.398Z,100225.50
2022-09-21T12:46:24.420Z,100227.59
2022-09-21T12:48:52.995Z,100228.22
2022-09-21T12:51:37.137Z,100238.13
2022-09-21T12:54:12.398Z,100239.56
2022-09-21T12:56:52.201Z,100244.34
2022-09-21T12:59:43.943Z,100236.75
2022-09-21T13:02:17.820Z,100234.66
2022-09-21T13:04:48.064Z,100226.44
2022-09-21T13:07:43.880Z,100225.88
2022-09-21T13:10:24.076Z,100212.19
2022-09-21T13:12:56.269Z,100211.78
2022-09-21T13:15:30.024Z,100211.59
2022-09-21T13:18:26.330Z,100205.38
2022-09-21T13:20:54.382Z,100212.53
2022-09-21T13:23:30.387Z,100211.25
2022-09-21T13:26:07.149Z,100204.72
2022-09-21T13:28:56.888Z,100198.12
2022-09-21T13:31:41.740Z,100196.00
2022-09-21T13:34:15.501Z,100197.53
2022-09-21T13:36:43.360Z,100191.09
2022-09-21T13:39:17.194Z,100195.12
2022-09-21T13:42:02.929Z,100188.00
2022-09-21T13:44:34.347Z,100191.12
2022-09-21T13:47:02.234Z,100194.00
2022-09-21T13:49:39.825Z,100188.19
2022-09-21T13:52:13.610Z,100186.88
2022-09-21T13:54:52.957Z,100183.34
2022-09-21T13:57:38.794Z,100186.19
2022-09-21T14:00:09.939Z,100184.50
2022-09-21T14:02:42.824Z,100177.13
2022-09-21T14:05:39.344Z,100171.84
2022-09-21T14:08:18.807Z,100179.34
2022-09-21T14:10:55.887Z,100175.63
2022-09-21T14:13:27.571Z,100183.91
2022-09-21T14:15:55.494Z,100194.47
2022-09-21T14:18:37.631Z,100198.91
2022-09-21T14:21:11.206Z,100194.81
2022-09-21T14:23:40.151Z,100196.84
2022-09-21T14:26:39.958Z,100191.81
2022-09-21T14:29:16.221Z,100198.34
2022-09-21T14:31:44.123Z,100194.06
2022-09-21T14:34:17.933Z,100197.38
2022-09-21T14:36:47.606Z,100193.75
2022-09-21T14:39:29.494Z,100198.53
2022-09-21T14:41:59.322Z,100197.59
2022-09-21T14:44:30.036Z,100197.72
2022-09-21T14:47:06.776Z,100201.56
2022-09-21T14:49:52.459Z,100205.53
2022-09-21T14:52:38.875Z,100201.53
2022-09-21T14:55:16.795Z,100199.56
2022-09-21T14:58:16.568Z,100196.31
2022-09-21T15:00:49.667Z,100194.91
2022-09-21T15:03:35.778Z,100198.91
2022-09-21T15:06:44.697Z,100192.56
2022-09-21T15:10:04.217Z,100190.47
2022-09-21T15:12:46.536Z,100187.19
2022-09-21T15:15:40.682Z,100191.84
2022-09-21T15:18:20.087Z,100185.59
2022-09-21T15:21:04.105Z,100186.47
2022-09-21T15:23:34.315Z,100189.34
2022-09-21T15:26:05.169Z,100182.59
2022-09-21T15:28:57.904Z,100193.78
2022-09-21T15:31:24.578Z,100188.69
2022-09-21T15:33:53.362Z,100183.31
2022-09-21T15:36:23.256Z,100194.84
2022-09-21T15:38:52.575Z,100194.66
2022-09-21T15:41:44.968Z,100190.00
2022-09-21T15:44:16.325Z,100203.75
2022-09-21T15:46:48.170Z,100196.69
2022-09-21T15:49:22.026Z,100200.97
2022-09-21T15:51:54.609Z,100198.19
2022-09-21T15:54:32.014Z,100208.41
2022-09-21T15:57:05.953Z,100214.00
2022-09-21T15:59:35.827Z,100212.41
2022-09-21T16:02:11.756Z,100221.19
2022-09-21T16:04:49.265Z,100216.78
2022-09-21T16:07:42.993Z,100220.72
2022-09-21T16:10:33.849Z,100224.09
2022-09-21T16:13:23.940Z,100229.41
2022-09-21T16:16:02.620Z,100228.84
2022-09-21T16:18:43.122Z,100226.13
2022-09-21T16:21:24.259Z,100228.31
2022-09-21T16:23:52.730Z,100226.69
2022-09-21T16:26:28.296Z,100239.00
2022-09-21T16:29:16.628Z,100236.53
2022-09-21T16:31:49.706Z,100234.00
2022-09-21T16:34:33.276Z,100231.91
2022-09-21T16:37:02.789Z,100237.91
2022-09-21T16:39:30.147Z,100232.44
2022-09-21T16:42:00.983Z,100235.16
2022-09-21T16:44:40.129Z,100235.97
2022-09-21T16:47:13.404Z,100251.06
2022-09-21T16:49:41.441Z,100244.19
2022-09-21T16:52:09.317Z,100248.56
2022-09-21T16:54:37.492Z,100252.12
2022-09-21T16:57:06.370Z,100253.47
2022-09-21T16:59:35.751Z,100252.59
2022-09-21T17:02:05.020Z,100261.47
2022-09-21T17:04:34.369Z,100255.69
2022-09-21T17:07:05.016Z,100254.59
2022-09-21T17:09:41.458Z,100265.31
2022-09-21T17:12:11.573Z,100256.78
2022-09-21T17:14:45.621Z,100263.38
2022-09-21T17:17:18.754Z,100265.22
2022-09-21T17:19:48.477Z,100273.50
2022-09-21T17:22:19.494Z,100262.81
2022-09-21T17:24:51.693Z,100267.09
2022-09-21T17:27:21.870Z,100271.59
2022-09-21T17:29:50.247Z,100279.78
2022-09-21T17:32:20.572Z,100278.97
2022-09-21T17:34:58.836Z,100276.81
2022-09-21T17:37:26.840Z,100281.59
2022-09-21T17:39:54.254Z,100280.75
2022-09-21T17:42:25.136Z,100284.41
2022-09-21T17:45:38.751Z,100284.13
2022-09-21T17:48:13.049Z,100293.06
2022-09-21T17:50:40.796Z,100292.62
2022-09-21T17:53:27.678Z,100291.69
2022-09-21T17:55:58.545Z,100296.16
2022-09-21T17:58:47.573Z,100296.44
2022-09-21T18:01:36.087Z,100299.44
2022-09-21T18:04:04.694Z,100303.00
2022-09-21T18:06:34.091Z,100307.53
2022-09-21T18:09:01.796Z,100315.97
2022-09-21T18:11:45.905Z,100312.41
2022-09-21T18:14:31.666Z,100311.37
2022-09-21T18:17:01.894Z,100318.19
2022-09-21T18:19:52.293Z,100316.38
2022-09-21T18:23:00.457Z,100320.12
2022-09-21T18:25:47.774Z,100324.72
2022-09-21T18:28:24.148Z,100329.00
2022-09-21T18:31:15.135Z,100321.41
2022-09-21T18:33:48.533Z,100326.66
2022-09-21T18:36:22.300Z,100325.84
2022-09-21T18:39:16.825Z,100326.00
2022-09-21T18:42:09.243Z,100319.59
2022-09-21T18:44:42.109Z,100327.00
2022-09-21T18:47:16.306Z,100326.66
2022-09-21T18:50:02.513Z,100322.47
2022-09-21T18:52:29.995Z,100329.75
2022-09-21T18:54:57.869Z,100328.69
2022-09-21T18:57:25.863Z,100328.97
2022-09-21T18:59:54.034Z,100333.56
2022-09-21T19:02:21.967Z,100339.16
2022-09-21T19:04:49.769Z,100335.75
2022-09-21T19:07:28.274Z,100332.22
2022-09-21T19:10:13.707Z,100342.78
2022-09-21T19:13:07.828Z,100338.72
2022-09-21T19:16:02.040Z,100337.72
2022-09-21T19:18:41.666Z,100332.72
2022-09-21T19:21:17.311Z,100328.06
2022-09-21T19:23:59.253Z,100325.41
2022-09-21T19:26:45.116Z,100328.50
2022-09-21T19:29:31.839Z,100327.59
2022-09-21T19:31:59.645Z,100336.63
2022-09-21T19:34:28.134Z,100332.19
2022-09-21T19:36:57.357Z,100335.44
2022-09-21T19:39:25.283Z,100332.44
2022-09-21T19:42:08.913Z,100335.44
2022-09-21T19:45:02.377Z,100340.22
2022-09-21T19:47:40.902Z,100333.62
2022-09-21T19:50:28.172Z,100328.59
2022-09-21T19:53:15.882Z,100335.87
2022-09-21T19:56:02.590Z,100324.31
2022-09-21T19:58:48.715Z,100327.41
2022-09-21T20:01:18.100Z,100320.22
2022-09-21T20:03:47.207Z,100322.81
2022-09-21T20:06:29.346Z,100318.41
2022-09-21T20:09:13.086Z,100326.56
2022-09-21T20:12:07.940Z,100318.37
2022-09-21T20:14:38.852Z,100325.53
2022-09-21T20:17:10.686Z,100320.66
2022-09-21T20:19:53.073Z,100329.06
2022-09-21T20:22:46.849Z,100331.53
2022-09-21T20:25:21.588Z,100333.34
2022-09-21T20:27:51.694Z,100330.50
2022-09-21T20:30:33.838Z,100332.00
2022-09-21T20:33:08.940Z,100328.25
2022-09-21T20:35:36.659Z,100331.63
2022-09-21T20:38:04.094Z,100332.37
2022-09-21T20:40:32.370Z,100332.22
2022-09-21T20:43:01.236Z,100337.38
2022-09-21T20:45:29.629Z,100341.09
2022-09-21T20:48:13.117Z,100344.63
2022-09-21T20:50:44.536Z,100347.12
2022-09-21T20:53:12.674Z,100338.03
2022-09-21T20:55:41.155Z,100333.75
2022-09-21T20:58:12.930Z,100329.47
2022-09-21T21:00:40.468Z,100327.06
2022-09-21T21:03:07.994Z,100337.75
2022-09-21T21:05:35.614Z,100334.09
2022-09-21T21:08:03.740Z,100332.66
2022-09-21T21:10:31.818Z,100335.56
2022-09-21T21:12:59.441Z,100334.19
2022-09-21T21:15:27.310Z,100331.19
2022-09-21T21:17:54.790Z,100336.47
2022-09-21T21:20:22.687Z,100324.44
2022-09-21T21:22:51.117Z,100333.28
2022-09-21T21:25:18.569Z,100327.72
2022-09-21T21:27:46.290Z,100321.53
2022-09-21T21:30:13.745Z,100330.78
2022-09-21T21:32:42.743Z,100327.56
2022-09-21T21:35:10.351Z,100326.22
2022-09-21T21:37:37.836Z,100321.53
2022-09-21T21:40:05.748Z,100315.16
2022-09-21T21:42:34.354Z,100319.00
2022-09-21T21:45:01.684Z,100322.84
2022-09-21T21:47:44.607Z,100328.53
2022-09-21T21:50:12.283Z,100321.53
2022-09-21T21:52:40.605Z,100321.59
2022-09-21T21:55:08.383Z,100328.28
2022-09-21T21:57:36.002Z,100331.59
2022-09-21T22:00:04.858Z,100336.81
2022-09-21T22:02:32.441Z,100335.25
2022-09-21T22:05:00.137Z,100340.59
2022-09-21T22:07:27.463Z,100343.88
2022-09-21T22:09:55.589Z,100328.66
2022-09-21T22:12:23.284Z,100333.59
2022-09-21T22:14:50.592Z,100332.19
2022-09-21T22:17:17.910Z,100323.12
2022-09-21T22:19:45.571Z,100323.19
2022-09-21T22:22:12.884Z,100316.34
2022-09-21T22:24:40.231Z,100318.28
2022-09-21T22:27:07.846Z,100323.72
2022-09-21T22:29:35.844Z,100317.66
2022-09-21T22:32:03.284Z,100314.53
2022-09-21T22:34:30.970Z,100318.72
2022-09-21T22:36:59.080Z,100313.66
2022-09-21T22:39:26.706Z,100317.81
2022-09-21T22:41:54.352Z,100313.66
2022-09-21T22:44:21.678Z,100310.06
2022-09-21T22:46:49.007Z,100313.09
2022-09-21T22:49:16.714Z,100309.13
2022-09-21T22:51:44.071Z,100299.22
2022-09-21T22:54:11.398Z,100301.56
2022-09-21T22:56:38.980Z,100299.06
2022-09-21T22:59:06.360Z,100295.66
2022-09-21T23:01:35.501Z,100287.38
2022-09-21T23:04:11.612Z,100291.87
2022-09-21T23:06:41.430Z,100298.69
2022-09-21T23:09:15.733Z,100290.22
2022-09-21T23:11:47.160Z,100291.25
2022-09-21T23:14:16.407Z,100292.53
2022-09-21T23:16:44.144Z,100293.00
2022-09-21T23:19:15.711Z,100288.91
2022-09-21T23:21:49.632Z,100285.81
2022-09-21T23:24:17.938Z,100288.75
2022-09-21T23:26:45.855Z,100289.34
2022-09-21T23:29:15.116Z,100293.47
2022-09-21T23:31:45.382Z,100296.34
2022-09-21T23:34:14.674Z,100292.22
2022-09-21T23:36:42.672Z,100288.97
2022-09-21T23:39:11.738Z,100286.41
2022-09-21T23:41:39.727Z,100291.00
2022-09-21T23:44:07.070Z,100295.59
2022-09-21T23:46:36.016Z,100294.94
2022-09-21T23:49:04.179Z,100299.25
2022-09-21T23:51:31.537Z,100298.59
2022-09-21T23:53:59.558Z,100294.56
2022-09-21T23:56:28.492Z,100290.91
2022-09-21T23:58:56.244Z,100290.91
